createdAt,value
2022-10-23T00:01:26.769Z,99314.47
2022-10-23T00:03:57.247Z,99309.22
2022-10-23T00:06:26.684Z,99316.81
2022-10-23T00:08:55.651Z,99313.41
2022-10-23T00:11:26.733Z,99309.13
2022-10-23T00:13:56.920Z,99311.72
2022-10-23T00:16:27.000Z,99317.78
2022-10-23T00:18:55.158Z,99321.38
2022-10-23T00:21:24.057Z,99306.84
2022-10-23T00:23:52.486Z,99313.38
2022-10-23T00:26:21.146Z,99308.97
2022-10-23T00:28:51.435Z,99305.78
2022-10-23T00:31:21.506Z,99321.22
2022-10-23T00:33:51.742Z,99310.91
2022-10-23T00:36:22.127Z,99304.00
2022-10-23T00:38:52.456Z,99283.16
2022-10-23T00:41:24.003Z,99291.75
2022-10-23T00:44:06.941Z,99279.03
2022-10-23T00:46:36.671Z,99284.53
2022-10-23T00:49:08.671Z,99287.72
2022-10-23T00:51:41.566Z,99282.59
2022-10-23T00:54:27.090Z,99291.41
2022-10-23T00:57:04.446Z,99279.88
2022-10-23T00:59:33.712Z,99272.88
2022-10-23T01:02:02.315Z,99259.78
2022-10-23T01:04:33.296Z,99236.84
2022-10-23T01:07:10.756Z,99215.56
2022-10-23T01:09:46.287Z,99207.84
2022-10-23T01:12:20.969Z,99192.28
2022-10-23T01:15:02.267Z,99219.50
2022-10-23T01:17:40.845Z,99238.16
2022-10-23T01:20:33.948Z,99242.91
2022-10-23T01:23:30.567Z,99244.34
2022-10-23T01:26:12.627Z,99247.56
2022-10-23T01:28:49.171Z,99274.88
2022-10-23T01:31:27.278Z,99293.75
2022-10-23T01:34:00.232Z,99310.94
2022-10-23T01:36:33.863Z,99319.81
2022-10-23T01:39:07.958Z,99330.88
2022-10-23T01:41:41.838Z,99328.88
2022-10-23T01:44:17.793Z,99359.50
2022-10-23T01:46:48.590Z,99372.81
2022-10-23T01:49:18.822Z,99385.66
2022-10-23T01:51:57.190Z,99387.38
2022-10-23T01:54:35.165Z,99389.22
2022-10-23T01:57:04.850Z,99392.00
2022-10-23T01:59:39.950Z,99377.91
2022-10-23T02:02:12.945Z,99372.91
2022-10-23T02:04:49.155Z,99372.66
2022-10-23T02:07:18.421Z,99371.38
2022-10-23T02:09:47.438Z,99383.25
2022-10-23T02:12:25.412Z,99386.56
2022-10-23T02:14:58.929Z,99392.72
2022-10-23T02:17:34.569Z,99374.91
2022-10-23T02:20:15.480Z,99345.41
2022-10-23T02:22:52.914Z,99282.59
2022-10-23T02:25:26.703Z,99250.25
2022-10-23T02:27:59.561Z,99256.94
2022-10-23T02:30:39.245Z,99251.00
2022-10-23T02:33:13.121Z,99242.69
2022-10-23T02:35:42.088Z,99208.38
2022-10-23T02:38:32.651Z,99211.16
2022-10-23T02:41:12.728Z,99226.47
2022-10-23T02:43:51.157Z,99219.94
2022-10-23T02:46:26.777Z,99207.22
2022-10-23T02:49:09.695Z,99197.00
2022-10-23T02:51:48.901Z,99183.56
2022-10-23T02:54:33.355Z,99186.03
2022-10-23T02:57:07.399Z,99183.41
2022-10-23T02:59:44.557Z,99171.19
2022-10-23T03:02:22.871Z,99162.25
2022-10-23T03:04:53.172Z,99172.44
2022-10-23T03:07:22.138Z,99170.88
2022-10-23T03:09:50.384Z,99168.38
2022-10-23T03:12:19.153Z,99168.50
2022-10-23T03:14:49.038Z,99162.34
2022-10-23T03:17:19.460Z,99170.50
2022-10-23T03:19:48.966Z,99169.66
2022-10-23T03:22:17.200Z,99175.09
2022-10-23T03:24:46.179Z,99185.16
2022-10-23T03:27:14.931Z,99197.91
2022-10-23T03:29:43.789Z,99199.75
2022-10-23T03:32:12.067Z,99197.47
2022-10-23T03:34:41.670Z,99196.56
2022-10-23T03:37:10.869Z,99195.97
2022-10-23T03:39:39.428Z,99197.13
2022-10-23T03:42:07.972Z,99185.22
2022-10-23T03:44:37.068Z,99181.06
2022-10-23T03:47:06.395Z,99183.72
2022-10-23T03:49:34.592Z,99179.41
2022-10-23T03:52:09.590Z,99182.00
2022-10-23T03:54:38.066Z,99182.00
2022-10-23T03:57:06.274Z,99175.13
2022-10-23T03:59:34.478Z,99173.97
2022-10-23T04:02:03.038Z,99164.06
2022-10-23T04:04:31.462Z,99159.06
2022-10-23T04:07:00.754Z,99147.19
2022-10-23T04:09:31.040Z,99155.78
2022-10-23T04:11:59.287Z,99155.06
2022-10-23T04:14:30.603Z,99149.63
2022-10-23T04:17:00.486Z,99150.16
2022-10-23T04:19:29.634Z,99152.59
2022-10-23T04:21:59.003Z,99145.31
2022-10-23T04:24:27.647Z,99140.66
2022-10-23T04:26:57.237Z,99134.16
2022-10-23T04:29:31.835Z,99128.56
2022-10-23T04:32:00.385Z,99127.28
2022-10-23T04:34:30.098Z,99131.88
2022-10-23T04:36:58.363Z,99125.84
2022-10-23T04:39:26.662Z,99140.25
2022-10-23T04:41:56.597Z,99135.63
2022-10-23T04:44:26.642Z,99131.03
2022-10-23T04:46:55.351Z,99135.75
2022-10-23T04:49:25.195Z,99132.00
2022-10-23T04:52:12.685Z,99132.22
2022-10-23T04:55:13.776Z,99120.25
2022-10-23T04:57:48.199Z,99111.28
2022-10-23T05:00:17.964Z,99128.06
2022-10-23T05:02:53.245Z,99122.97
2022-10-23T05:05:22.482Z,99133.28
2022-10-23T05:08:18.232Z,99127.84
2022-10-23T05:11:08.426Z,99129.50
2022-10-23T05:13:45.090Z,99131.00
2022-10-23T05:16:21.498Z,99128.69
2022-10-23T05:18:50.830Z,99121.19
2022-10-23T05:21:25.953Z,99115.88
2022-10-23T05:23:55.222Z,99118.97
2022-10-23T05:26:23.950Z,99109.72
2022-10-23T05:28:56.061Z,99109.00
2022-10-23T05:31:25.905Z,99092.25
2022-10-23T05:33:58.083Z,99095.47
2022-10-23T05:36:27.272Z,99079.75
2022-10-23T05:39:02.276Z,99078.84
2022-10-23T05:41:39.797Z,99095.91
2022-10-23T05:44:09.845Z,99099.88
2022-10-23T05:47:09.262Z,99102.69
2022-10-23T05:50:03.812Z,99107.03
2022-10-23T05:53:11.444Z,99102.66
2022-10-23T05:55:53.053Z,99093.31
2022-10-23T05:58:41.478Z,99092.16
2022-10-23T06:01:49.977Z,99081.56
2022-10-23T06:04:32.171Z,99086.34
2022-10-23T06:07:38.863Z,99089.25
2022-10-23T06:10:09.003Z,99081.66
2022-10-23T06:12:41.606Z,99093.09
2022-10-23T06:15:14.585Z,99086.97
2022-10-23T06:18:04.340Z,99091.13
2022-10-23T06:20:37.522Z,99088.22
2022-10-23T06:23:11.490Z,99091.22
2022-10-23T06:26:07.958Z,99086.75
2022-10-23T06:28:46.571Z,99096.22
2022-10-23T06:31:19.177Z,99081.66
2022-10-23T06:33:49.395Z,99065.91
2022-10-23T06:36:17.536Z,99072.53
2022-10-23T06:38:46.203Z,99075.06
2022-10-23T06:41:17.517Z,99065.69
2022-10-23T06:43:49.709Z,99058.59
2022-10-23T06:46:26.832Z,99054.84
2022-10-23T06:49:19.286Z,99038.25
2022-10-23T06:51:49.617Z,99041.50
2022-10-23T06:54:22.549Z,99031.72
2022-10-23T06:57:12.307Z,99035.06
2022-10-23T06:59:45.165Z,99041.41
2022-10-23T07:02:13.566Z,99032.06
2022-10-23T07:04:43.414Z,99023.91
2022-10-23T07:07:19.138Z,99017.44
2022-10-23T07:09:49.713Z,99000.69
2022-10-23T07:12:17.923Z,99002.78
2022-10-23T07:14:52.326Z,99003.41
2022-10-23T07:17:20.393Z,98996.59
2022-10-23T07:19:50.387Z,99003.59
2022-10-23T07:22:18.680Z,98998.78
2022-10-23T07:24:51.284Z,98994.19
2022-10-23T07:27:27.221Z,98998.16
2022-10-23T07:29:58.097Z,98995.03
2022-10-23T07:32:30.925Z,98976.09
2022-10-23T07:35:10.673Z,98978.34
2022-10-23T07:37:41.470Z,98970.16
2022-10-23T07:40:11.065Z,98955.91
2022-10-23T07:42:45.064Z,98954.22
2022-10-23T07:45:13.889Z,98961.03
2022-10-23T07:47:45.898Z,98950.38
2022-10-23T07:50:16.817Z,98955.53
2022-10-23T07:52:45.198Z,98951.91
2022-10-23T07:55:15.901Z,98960.69
2022-10-23T07:57:49.875Z,98958.34
2022-10-23T08:00:31.410Z,98957.19
2022-10-23T08:03:10.774Z,98946.06
2022-10-23T08:05:40.879Z,98947.78
2022-10-23T08:08:10.280Z,98954.13
2022-10-23T08:10:42.056Z,98960.25
2022-10-23T08:13:14.615Z,98947.22
2022-10-23T08:15:58.688Z,98939.22
2022-10-23T08:18:49.619Z,98942.34
2022-10-23T08:21:21.015Z,98942.03
2022-10-23T08:23:51.270Z,98947.00
2022-10-23T08:26:19.954Z,98939.78
2022-10-23T08:28:48.496Z,98935.41
2022-10-23T08:31:18.981Z,98934.00
2022-10-23T08:34:10.368Z,98928.06
2022-10-23T08:36:40.702Z,98927.59
2022-10-23T08:39:09.432Z,98917.75
2022-10-23T08:41:44.194Z,98916.25
2022-10-23T08:44:22.951Z,98915.91
2022-10-23T08:47:00.308Z,98903.00
2022-10-23T08:49:51.285Z,98912.63
2022-10-23T08:52:27.054Z,98911.63
2022-10-23T08:55:03.562Z,98908.84
2022-10-23T08:57:40.060Z,98898.44
2022-10-23T09:00:15.940Z,98893.34
2022-10-23T09:02:47.586Z,98901.88
2022-10-23T09:05:20.932Z,98881.13
2022-10-23T09:08:02.380Z,98880.72
2022-10-23T09:10:43.955Z,98874.34
2022-10-23T09:13:38.101Z,98881.50
2022-10-23T09:16:16.711Z,98886.13
2022-10-23T09:18:45.336Z,98893.56
2022-10-23T09:21:13.407Z,98904.25
2022-10-23T09:23:43.323Z,98904.09
2022-10-23T09:26:16.266Z,98915.84
2022-10-23T09:28:48.797Z,98910.50
2022-10-23T09:31:19.821Z,98919.97
2022-10-23T09:33:59.709Z,98935.28
2022-10-23T09:36:30.469Z,98939.06
2022-10-23T09:39:01.850Z,98949.81
2022-10-23T09:41:32.383Z,98959.50
2022-10-23T09:44:02.817Z,98985.44
2022-10-23T09:46:42.262Z,98995.53
2022-10-23T09:49:18.361Z,98998.84
2022-10-23T09:51:55.626Z,99007.72
2022-10-23T09:54:25.587Z,99006.47
2022-10-23T09:56:56.250Z,99000.16
2022-10-23T09:59:29.032Z,98992.44
2022-10-23T10:01:59.962Z,98993.81
2022-10-23T10:04:39.652Z,98997.47
2022-10-23T10:07:19.927Z,99012.63
2022-10-23T10:09:49.946Z,99017.00
2022-10-23T10:12:32.537Z,99008.34
2022-10-23T10:15:05.081Z,99002.47
2022-10-23T10:17:41.947Z,99003.41
2022-10-23T10:20:32.921Z,98983.53
2022-10-23T10:23:08.378Z,98979.88
2022-10-23T10:25:41.732Z,98979.47
2022-10-23T10:28:30.075Z,98969.50
2022-10-23T10:31:10.771Z,98956.31
2022-10-23T10:33:53.274Z,98944.47
2022-10-23T10:36:40.328Z,98932.91
2022-10-23T10:39:18.764Z,98925.31
2022-10-23T10:41:58.050Z,98928.50
2022-10-23T10:44:43.704Z,98913.41
2022-10-23T10:47:21.181Z,98908.06
2022-10-23T10:50:02.117Z,98913.41
2022-10-23T10:52:49.280Z,98908.50
2022-10-23T10:55:26.316Z,98906.75
2022-10-23T10:58:01.044Z,98904.06
2022-10-23T11:00:32.397Z,98900.72
2022-10-23T11:03:03.883Z,98886.53
2022-10-23T11:05:34.152Z,98845.34
2022-10-23T11:08:07.499Z,98859.50
2022-10-23T11:10:40.326Z,98853.59
2022-10-23T11:13:26.148Z,98838.25
2022-10-23T11:15:59.179Z,98825.47
2022-10-23T11:18:31.076Z,98814.13
2022-10-23T11:21:09.810Z,98820.09
2022-10-23T11:24:19.426Z,98805.03
2022-10-23T11:27:02.117Z,98801.16
2022-10-23T11:30:14.094Z,98801.56
2022-10-23T11:33:07.251Z,98798.78
2022-10-23T11:35:54.751Z,98784.59
2022-10-23T11:38:28.126Z,98787.22
2022-10-23T11:40:59.458Z,98788.81
2022-10-23T11:43:29.534Z,98795.53
2022-10-23T11:45:59.686Z,98793.50
2022-10-23T11:48:40.782Z,98776.53
2022-10-23T11:51:28.415Z,98770.94
2022-10-23T11:54:24.431Z,98774.03
2022-10-23T11:57:09.253Z,98757.84
2022-10-23T11:59:52.829Z,98762.41
2022-10-23T12:02:31.999Z,98743.72
2022-10-23T12:05:05.855Z,98751.03
2022-10-23T12:07:37.889Z,98740.56
2022-10-23T12:10:09.466Z,98746.03
2022-10-23T12:12:41.017Z,98737.63
2022-10-23T12:15:24.858Z,98722.00
2022-10-23T12:17:56.111Z,98726.25
2022-10-23T12:20:40.772Z,98722.09
2022-10-23T12:23:22.885Z,98734.56
2022-10-23T12:26:07.741Z,98714.25
2022-10-23T12:28:41.845Z,98709.53
2022-10-23T12:31:26.621Z,98695.22
2022-10-23T12:34:06.709Z,98681.34
2022-10-23T12:36:52.709Z,98666.47
2022-10-23T12:39:30.299Z,98662.44
2022-10-23T12:42:02.314Z,98673.78
2022-10-23T12:44:30.672Z,98651.72
2022-10-23T12:47:03.122Z,98642.38
2022-10-23T12:49:35.630Z,98619.16
2022-10-23T12:52:06.304Z,98626.28
2022-10-23T12:54:41.100Z,98613.72
2022-10-23T12:57:21.541Z,98599.50
2022-10-23T12:59:50.919Z,98594.38
2022-10-23T13:02:24.693Z,98602.16
2022-10-23T13:04:56.228Z,98583.34
2022-10-23T13:07:27.019Z,98585.22
2022-10-23T13:09:59.256Z,98573.13
2022-10-23T13:12:31.996Z,98567.94
2022-10-23T13:15:03.665Z,98574.19
2022-10-23T13:17:36.814Z,98552.81
2022-10-23T13:20:27.532Z,98565.41
2022-10-23T13:23:01.119Z,98570.88
2022-10-23T13:25:32.329Z,98550.72
2022-10-23T13:28:14.923Z,98534.16
2022-10-23T13:30:46.434Z,98535.25
2022-10-23T13:33:24.953Z,98530.88
2022-10-23T13:35:58.562Z,98524.09
2022-10-23T13:38:32.851Z,98524.69
2022-10-23T13:41:03.203Z,98519.31
2022-10-23T13:43:33.086Z,98522.53
2022-10-23T13:46:02.492Z,98507.53
2022-10-23T13:48:31.101Z,98492.72
2022-10-23T13:51:13.644Z,98496.22
2022-10-23T13:53:41.638Z,98508.09
2022-10-23T13:56:12.891Z,98487.50
2022-10-23T13:58:42.122Z,98479.31
2022-10-23T14:01:21.744Z,98483.63
2022-10-23T14:03:50.276Z,98472.81
2022-10-23T14:06:20.959Z,98479.44
2022-10-23T14:08:49.811Z,98455.09
2022-10-23T14:11:21.137Z,98432.88
2022-10-23T14:13:50.201Z,98475.94
2022-10-23T14:16:21.370Z,98445.75
2022-10-23T14:18:50.517Z,98430.69
2022-10-23T14:21:22.455Z,98420.22
2022-10-23T14:23:52.778Z,98416.38
2022-10-23T14:26:27.653Z,98404.50
2022-10-23T14:29:00.653Z,98407.84
2022-10-23T14:31:33.674Z,98386.50
2022-10-23T14:34:01.980Z,98393.28
2022-10-23T14:36:43.132Z,98385.91
2022-10-23T14:39:19.113Z,98377.91
2022-10-23T14:41:48.719Z,98368.41
2022-10-23T14:44:18.035Z,98351.53
2022-10-23T14:46:46.324Z,98355.13
2022-10-23T14:49:15.102Z,98353.75
2022-10-23T14:51:45.129Z,98341.66
2022-10-23T14:54:13.573Z,98352.91
2022-10-23T14:56:42.010Z,98353.00
2022-10-23T14:59:11.770Z,98358.66
2022-10-23T15:01:45.270Z,98350.13
2022-10-23T15:04:15.240Z,98350.66
2022-10-23T15:06:47.238Z,98339.03
2022-10-23T15:09:15.984Z,98338.13
2022-10-23T15:11:44.157Z,98325.25
2022-10-23T15:14:12.509Z,98326.88
2022-10-23T15:16:42.529Z,98323.75
2022-10-23T15:19:15.222Z,98316.72
2022-10-23T15:21:50.062Z,98316.97
2022-10-23T15:24:18.886Z,98316.72
2022-10-23T15:26:47.073Z,98303.81
2022-10-23T15:29:16.077Z,98318.91
2022-10-23T15:31:48.848Z,98314.50
2022-10-23T15:34:19.834Z,98296.66
2022-10-23T15:36:50.396Z,98302.69
2022-10-23T15:39:21.067Z,98298.41
2022-10-23T15:41:54.219Z,98295.41
2022-10-23T15:44:24.156Z,98284.81
2022-10-23T15:46:53.805Z,98285.34
2022-10-23T15:49:22.297Z,98284.28
2022-10-23T15:51:52.336Z,98278.91
2022-10-23T15:54:21.877Z,98276.44
2022-10-23T15:56:51.545Z,98275.47
2022-10-23T15:59:24.608Z,98280.97
2022-10-23T16:01:53.129Z,98271.09
2022-10-23T16:04:21.526Z,98273.16
2022-10-23T16:06:51.984Z,98281.81
2022-10-23T16:09:20.276Z,98268.63
2022-10-23T16:11:48.574Z,98265.88
2022-10-23T16:14:19.611Z,98267.09
2022-10-23T16:16:48.571Z,98265.22
2022-10-23T16:19:17.510Z,98268.91
2022-10-23T16:21:46.676Z,98265.06
2022-10-23T16:24:16.424Z,98249.41
2022-10-23T16:26:50.253Z,98273.56
2022-10-23T16:29:18.627Z,98274.00
2022-10-23T16:31:47.354Z,98276.44
2022-10-23T16:34:15.645Z,98279.59
2022-10-23T16:36:45.261Z,98278.53
2022-10-23T16:39:33.950Z,98271.66
2022-10-23T16:42:21.007Z,98273.28
2022-10-23T16:45:12.096Z,98276.44
2022-10-23T16:47:40.478Z,98284.97
2022-10-23T16:50:09.175Z,98290.59
2022-10-23T16:52:37.638Z,98294.31
2022-10-23T16:55:08.280Z,98275.75
2022-10-23T16:57:36.902Z,98293.19
2022-10-23T17:00:06.070Z,98305.69
2022-10-23T17:02:35.138Z,98290.19
2022-10-23T17:05:04.988Z,98318.34
2022-10-23T17:07:34.057Z,98310.63
2022-10-23T17:10:02.814Z,98314.06
2022-10-23T17:12:32.885Z,98308.28
2022-10-23T17:15:01.794Z,98336.03
2022-10-23T17:17:30.252Z,98337.38
2022-10-23T17:19:58.457Z,98347.03
2022-10-23T17:22:27.825Z,98351.78
2022-10-23T17:24:56.646Z,98349.00
2022-10-23T17:27:24.812Z,98374.72
2022-10-23T17:29:54.953Z,98373.63
2022-10-23T17:32:23.248Z,98382.00
2022-10-23T17:34:51.439Z,98387.78
2022-10-23T17:37:19.629Z,98402.59
2022-10-23T17:39:47.848Z,98395.75
2022-10-23T17:42:16.362Z,98408.75
2022-10-23T17:44:44.898Z,98413.25
2022-10-23T17:47:15.672Z,98422.63
2022-10-23T17:49:45.478Z,98445.88
2022-10-23T17:52:15.252Z,98447.56
2022-10-23T17:54:43.437Z,98441.88
2022-10-23T17:57:12.105Z,98477.31
2022-10-23T17:59:40.635Z,98475.59
2022-10-23T18:02:09.274Z,98487.25
2022-10-23T18:04:39.307Z,98485.59
2022-10-23T18:07:07.578Z,98511.31
2022-10-23T18:09:36.414Z,98524.47
2022-10-23T18:12:06.277Z,98520.59
2022-10-23T18:14:37.309Z,98540.63
2022-10-23T18:17:06.128Z,98558.16
2022-10-23T18:19:34.814Z,98549.84
2022-10-23T18:22:04.728Z,98556.84
2022-10-23T18:24:33.448Z,98570.13
2022-10-23T18:27:01.950Z,98581.03
2022-10-23T18:29:30.167Z,98587.66
2022-10-23T18:31:58.402Z,98588.97
2022-10-23T18:34:27.813Z,98595.84
2022-10-23T18:36:57.833Z,98622.41
2022-10-23T18:39:27.694Z,98612.44
2022-10-23T18:41:59.240Z,98640.41
2022-10-23T18:44:29.839Z,98649.91
2022-10-23T18:46:59.255Z,98656.56
2022-10-23T18:49:28.861Z,98667.00
2022-10-23T18:51:58.396Z,98671.25
2022-10-23T18:54:28.082Z,98679.66
2022-10-23T18:56:56.632Z,98687.88
2022-10-23T18:59:24.889Z,98698.75
2022-10-23T19:01:53.501Z,98697.78
2022-10-23T19:04:21.958Z,98706.44
2022-10-23T19:06:52.209Z,98710.16
2022-10-23T19:09:21.097Z,98724.03
2022-10-23T19:11:51.004Z,98729.09
2022-10-23T19:14:19.297Z,98741.19
2022-10-23T19:16:58.756Z,98743.47
2022-10-23T19:19:31.010Z,98746.66
2022-10-23T19:21:59.810Z,98759.25
2022-10-23T19:24:33.706Z,98761.97
2022-10-23T19:27:04.647Z,98763.72
2022-10-23T19:29:33.676Z,98769.78
2022-10-23T19:32:01.889Z,98783.75
2022-10-23T19:34:30.430Z,98780.09
2022-10-23T19:36:58.584Z,98798.81
2022-10-23T19:39:26.878Z,98799.31
2022-10-23T19:41:55.389Z,98810.69
2022-10-23T19:44:25.140Z,98817.22
2022-10-23T19:46:53.600Z,98835.59
2022-10-23T19:49:23.978Z,98834.63
2022-10-23T19:51:52.221Z,98822.06
2022-10-23T19:54:20.885Z,98839.63
2022-10-23T19:56:49.998Z,98856.09
2022-10-23T19:59:18.988Z,98854.19
2022-10-23T20:01:49.370Z,98862.84
2022-10-23T20:04:18.545Z,98865.94
2022-10-23T20:06:47.415Z,98870.56
2022-10-23T20:09:15.668Z,98885.00
2022-10-23T20:11:45.477Z,98884.78
2022-10-23T20:14:14.472Z,98891.66
2022-10-23T20:16:45.118Z,98904.09
2022-10-23T20:21:48.301Z,98914.50
2022-10-23T20:24:18.867Z,98914.41
2022-10-23T20:26:49.710Z,98940.81
2022-10-23T20:29:18.005Z,98944.25
2022-10-23T20:31:46.205Z,98949.78
2022-10-23T20:34:16.100Z,98960.50
2022-10-23T20:36:47.039Z,98964.41
2022-10-23T20:39:18.205Z,98964.41
2022-10-23T20:41:46.901Z,98960.50
2022-10-23T20:46:51.886Z,98979.06
2022-10-23T20:49:22.085Z,98988.19
2022-10-23T20:51:55.082Z,98997.06
2022-10-23T20:54:24.745Z,98998.72
2022-10-23T20:56:52.954Z,99001.69
2022-10-23T20:59:21.616Z,99004.75
2022-10-23T21:01:53.103Z,99002.72
2022-10-23T21:04:27.845Z,99012.81
2022-10-23T21:07:13.808Z,99025.97
2022-10-23T21:09:42.484Z,99025.84
2022-10-23T21:12:10.830Z,99038.56
2022-10-23T21:14:39.016Z,99039.47
2022-10-23T21:17:08.592Z,99049.31
2022-10-23T21:19:39.141Z,99047.63
2022-10-23T21:22:07.567Z,99049.81
2022-10-23T21:24:35.799Z,99055.63
2022-10-23T21:27:04.434Z,99060.84
2022-10-23T21:29:32.911Z,99064.38
2022-10-23T21:32:02.268Z,99068.06
2022-10-23T21:34:31.481Z,99081.19
2022-10-23T21:37:17.669Z,99077.25
2022-10-23T21:39:47.188Z,99093.00
2022-10-23T21:42:16.981Z,99098.03
2022-10-23T21:44:45.795Z,99100.66
2022-10-23T21:47:14.245Z,99111.78
2022-10-23T21:49:44.116Z,99117.50
2022-10-23T21:52:16.204Z,99117.38
2022-10-23T21:54:47.176Z,99112.91
2022-10-23T21:57:16.357Z,99125.09
2022-10-23T21:59:45.177Z,99135.59
2022-10-23T22:02:14.771Z,99135.25
2022-10-23T22:04:43.225Z,99142.97
2022-10-23T22:07:14.912Z,99140.16
2022-10-23T22:09:45.037Z,99150.81
2022-10-23T22:12:13.429Z,99150.66
2022-10-23T22:14:42.549Z,99149.03
2022-10-23T22:17:11.024Z,99155.94
2022-10-23T22:19:39.229Z,99164.91
2022-10-23T22:22:07.433Z,99154.09
2022-10-23T22:24:36.949Z,99157.97
2022-10-23T22:27:06.635Z,99167.47
2022-10-23T22:29:35.109Z,99175.59
2022-10-23T22:32:03.773Z,99177.50
2022-10-23T22:34:52.229Z,99172.91
2022-10-23T22:37:20.873Z,99186.06
2022-10-23T22:40:14.411Z,99181.16
2022-10-23T22:42:49.390Z,99188.56
2022-10-23T22:45:17.864Z,99186.19
2022-10-23T22:47:46.110Z,99198.69
2022-10-23T22:50:14.487Z,99205.16
2022-10-23T22:52:42.906Z,99216.28
2022-10-23T22:55:12.029Z,99224.22
2022-10-23T22:57:40.198Z,99229.41
2022-10-23T23:00:12.089Z,99229.28
2022-10-23T23:02:40.596Z,99232.66
2022-10-23T23:05:12.132Z,99239.63
2022-10-23T23:07:40.702Z,99247.53
2022-10-23T23:10:09.630Z,99254.63
2022-10-23T23:12:38.233Z,99253.38
2022-10-23T23:15:07.399Z,99262.66
2022-10-23T23:17:41.999Z,99251.28
2022-10-23T23:20:11.299Z,99267.31
2022-10-23T23:22:39.792Z,99258.59
2022-10-23T23:25:10.644Z,99262.13
2022-10-23T23:27:40.342Z,99274.72
2022-10-23T23:30:10.438Z,99270.47
2022-10-23T23:32:40.019Z,99290.91
2022-10-23T23:35:08.625Z,99285.91
2022-10-23T23:37:36.864Z,99287.75
2022-10-23T23:40:05.978Z,99287.88
2022-10-23T23:42:34.485Z,99291.31
2022-10-23T23:45:14.296Z,99303.94
2022-10-23T23:47:44.860Z,99313.09
2022-10-23T23:50:13.963Z,99318.00
2022-10-23T23:52:42.373Z,99319.66
2022-10-23T23:55:11.409Z,99316.66
2022-10-23T23:57:39.850Z,99318.84
